createdAt,value
2018-07-07T00:00:36.223Z,2.70
2018-07-07T00:03:06.164Z,2.67
2018-07-07T00:05:35.367Z,2.70
2018-07-07T00:08:05.768Z,3.13
2018-07-07T00:10:34.734Z,2.60
2018-07-07T00:13:07.398Z,2.83
2018-07-07T00:15:36.688Z,2.57
2018-07-07T00:18:05.427Z,2.50
2018-07-07T00:20:34.251Z,2.50
2018-07-07T00:23:03.398Z,2.63
2018-07-07T00:25:32.341Z,2.37
2018-07-07T00:28:01.240Z,2.80
2018-07-07T00:30:30.391Z,2.70
2018-07-07T00:32:59.796Z,2.97
2018-07-07T00:35:28.738Z,2.50
2018-07-07T00:38:03.058Z,2.77
2018-07-07T00:40:34.193Z,3.07
2018-07-07T00:43:03.462Z,2.53
2018-07-07T00:45:32.404Z,2.37
2018-07-07T00:48:01.284Z,2.63
2018-07-07T00:50:30.191Z,2.53
2018-07-07T00:52:59.083Z,2.70
2018-07-07T00:55:28.026Z,3.13
2018-07-07T00:57:56.891Z,2.60
2018-07-07T01:00:35.759Z,2.50
2018-07-07T01:03:05.003Z,2.63
2018-07-07T01:05:34.915Z,2.43
2018-07-07T01:08:03.782Z,2.77
2018-07-07T01:10:32.916Z,3.30
2018-07-07T01:13:01.896Z,2.70
2018-07-07T01:15:30.814Z,2.73
2018-07-07T01:17:59.864Z,2.50
2018-07-07T01:20:28.893Z,2.50
2018-07-07T01:22:57.790Z,2.77
2018-07-07T01:25:26.711Z,2.90
2018-07-07T01:27:55.622Z,2.70
2018-07-07T01:30:24.699Z,2.87
2018-07-07T01:32:53.600Z,3.00
2018-07-07T01:35:22.708Z,2.60
2018-07-07T01:37:51.547Z,2.50
2018-07-07T01:40:20.186Z,3.03
2018-07-07T01:42:49.181Z,3.07
2018-07-07T01:45:18.057Z,3.07
2018-07-07T01:47:47.151Z,2.73
2018-07-07T01:50:15.746Z,2.53
2018-07-07T01:52:44.403Z,2.57
2018-07-07T01:55:13.368Z,2.87
2018-07-07T01:57:42.321Z,2.93
2018-07-07T02:00:11.220Z,2.80
2018-07-07T02:02:40.104Z,2.50
2018-07-07T02:05:09.004Z,2.27
2018-07-07T02:07:38.314Z,2.63
2018-07-07T02:10:07.226Z,2.23
2018-07-07T02:12:36.232Z,2.13
2018-07-07T02:15:05.158Z,2.23
2018-07-07T02:17:34.069Z,2.40
2018-07-07T02:20:03.156Z,2.30
2018-07-07T02:22:32.050Z,2.10
2018-07-07T02:25:01.009Z,1.63
2018-07-07T02:27:29.908Z,1.90
2018-07-07T02:29:58.988Z,2.33
2018-07-07T02:32:28.884Z,2.20
2018-07-07T02:34:57.866Z,2.00
2018-07-07T02:37:26.824Z,2.10
2018-07-07T02:39:55.683Z,2.00
2018-07-07T02:42:24.344Z,2.17
2018-07-07T02:44:53.373Z,2.20
2018-07-07T02:47:22.309Z,2.37
2018-07-07T02:49:51.328Z,2.03
2018-07-07T02:52:20.556Z,2.03
2018-07-07T02:54:49.508Z,2.00
2018-07-07T02:57:18.444Z,1.90
2018-07-07T02:59:47.463Z,2.43
2018-07-07T03:02:16.476Z,1.80
2018-07-07T03:04:45.436Z,2.07
2018-07-07T03:07:14.376Z,2.30
2018-07-07T03:09:43.293Z,2.10
2018-07-07T03:12:12.295Z,2.10
2018-07-07T03:14:41.233Z,2.17
2018-07-07T03:17:10.187Z,2.27
2018-07-07T03:19:39.050Z,2.30
2018-07-07T03:22:07.988Z,2.10
2018-07-07T03:24:36.907Z,2.30
2018-07-07T03:27:05.578Z,1.90
2018-07-07T03:29:34.287Z,2.00
2018-07-07T03:32:03.470Z,1.87
2018-07-07T03:34:32.343Z,2.03
2018-07-07T03:37:01.288Z,2.00
2018-07-07T03:39:30.171Z,2.20
2018-07-07T03:41:59.057Z,2.10
2018-07-07T03:44:27.960Z,2.23
2018-07-07T03:46:56.953Z,2.40
2018-07-07T03:49:25.719Z,1.90
2018-07-07T03:51:54.361Z,2.10
2018-07-07T03:54:23.278Z,2.10
2018-07-07T03:56:52.280Z,2.30
2018-07-07T03:59:21.127Z,2.07
2018-07-07T04:01:50.104Z,2.20
2018-07-07T04:04:19.016Z,2.33
2018-07-07T04:06:48.047Z,2.20
2018-07-07T04:09:16.960Z,2.00
2018-07-07T04:11:45.878Z,2.10
2018-07-07T04:14:14.780Z,2.27
2018-07-07T04:16:43.671Z,2.00
2018-07-07T04:19:12.551Z,2.50
2018-07-07T04:21:41.449Z,2.43
2018-07-07T04:24:10.083Z,2.10
2018-07-07T04:26:38.808Z,1.90
2018-07-07T04:29:07.679Z,2.30
2018-07-07T04:31:36.668Z,2.27
2018-07-07T04:34:05.838Z,2.13
2018-07-07T04:36:35.064Z,2.17
2018-07-07T04:39:04.837Z,2.00
2018-07-07T04:41:33.736Z,2.70
2018-07-07T04:44:02.771Z,2.37
2018-07-07T04:46:31.687Z,2.17
2018-07-07T04:49:00.594Z,2.10
2018-07-07T04:51:29.533Z,2.30
2018-07-07T04:53:58.434Z,2.40
2018-07-07T04:56:27.339Z,2.17
2018-07-07T04:58:56.262Z,2.10
2018-07-07T05:01:25.141Z,2.00
2018-07-07T05:03:54.030Z,1.90
2018-07-07T05:06:23.003Z,2.10
2018-07-07T05:08:51.908Z,2.20
2018-07-07T05:11:20.868Z,2.10
2018-07-07T05:13:49.507Z,2.23
2018-07-07T05:16:18.245Z,2.47
2018-07-07T05:18:47.238Z,2.23
2018-07-07T05:21:16.240Z,2.30
2018-07-07T05:23:45.132Z,2.47
2018-07-07T05:26:14.044Z,2.07
2018-07-07T05:28:42.939Z,1.80
2018-07-07T05:31:11.950Z,2.43
2018-07-07T05:33:40.897Z,1.93
2018-07-07T05:36:09.944Z,2.53
2018-07-07T05:38:38.916Z,2.03
2018-07-07T05:41:08.028Z,2.23
2018-07-07T05:43:36.920Z,2.10
2018-07-07T05:46:06.012Z,2.33
2018-07-07T05:48:34.899Z,2.13
2018-07-07T05:51:03.980Z,2.30
2018-07-07T05:53:32.932Z,2.13
2018-07-07T05:56:01.892Z,1.73
2018-07-07T05:58:30.872Z,1.87
2018-07-07T06:00:59.875Z,1.90
2018-07-07T06:03:28.775Z,2.30
2018-07-07T06:05:57.669Z,2.07
2018-07-07T06:08:26.849Z,2.40
2018-07-07T06:10:55.731Z,2.43
2018-07-07T06:13:24.657Z,2.47
2018-07-07T06:15:53.623Z,2.43
2018-07-07T06:18:22.661Z,2.70
2018-07-07T06:20:51.585Z,2.53
2018-07-07T06:23:20.467Z,2.07
2018-07-07T06:25:49.403Z,2.50
2018-07-07T06:28:18.276Z,2.50
2018-07-07T06:30:47.160Z,2.30
2018-07-07T06:33:16.035Z,2.30
2018-07-07T06:35:44.973Z,2.00
2018-07-07T06:38:13.893Z,2.10
2018-07-07T06:40:42.832Z,1.80
2018-07-07T06:43:11.879Z,2.50
2018-07-07T06:45:40.819Z,2.30
2018-07-07T06:48:09.724Z,2.33
2018-07-07T06:50:38.600Z,2.03
2018-07-07T06:53:07.650Z,2.60
2018-07-07T06:55:36.520Z,3.17
2018-07-07T06:58:05.485Z,3.90
2018-07-07T07:00:34.534Z,3.70
2018-07-07T07:03:03.498Z,3.80
2018-07-07T07:05:32.467Z,3.93
2018-07-07T07:08:01.323Z,4.00
2018-07-07T07:10:30.275Z,4.57
2018-07-07T07:12:59.291Z,3.90
2018-07-07T07:15:28.248Z,3.53
2018-07-07T07:17:57.135Z,3.07
2018-07-07T07:20:26.372Z,3.47
2018-07-07T07:22:55.289Z,4.70
2018-07-07T07:25:24.181Z,3.03
2018-07-07T07:27:53.052Z,2.80
2018-07-07T07:30:23.587Z,2.93
2018-07-07T07:32:52.593Z,2.37
2018-07-07T07:35:21.419Z,2.63
2018-07-07T07:37:50.369Z,2.83
2018-07-07T07:40:19.264Z,2.30
2018-07-07T07:42:48.147Z,2.50
2018-07-07T07:45:17.245Z,3.00
2018-07-07T07:47:46.200Z,3.07
2018-07-07T07:50:15.159Z,2.50
2018-07-07T07:52:44.102Z,3.27
2018-07-07T07:55:13.091Z,2.90
2018-07-07T07:57:42.016Z,2.80
2018-07-07T08:00:10.955Z,2.10
2018-07-07T08:02:39.950Z,2.13
2018-07-07T08:05:08.929Z,2.30
2018-07-07T08:07:37.860Z,1.87
2018-07-07T08:10:06.832Z,2.17
2018-07-07T08:12:35.928Z,1.93
2018-07-07T08:15:04.914Z,2.07
2018-07-07T08:17:33.884Z,1.83
2018-07-07T08:20:02.840Z,1.80
2018-07-07T08:22:31.815Z,1.97
2018-07-07T08:25:00.638Z,1.77
2018-07-07T08:27:29.570Z,2.27
2018-07-07T08:29:58.431Z,2.13
2018-07-07T08:32:27.360Z,2.23
2018-07-07T08:34:56.443Z,1.90
2018-07-07T08:37:25.414Z,1.97
2018-07-07T08:39:54.391Z,2.30
2018-07-07T08:42:23.372Z,1.80
2018-07-07T08:44:52.327Z,2.10
2018-07-07T08:47:21.256Z,1.90
2018-07-07T08:49:54.648Z,2.20
2018-07-07T08:52:24.260Z,1.97
2018-07-07T08:54:53.413Z,2.00
2018-07-07T08:57:22.363Z,1.97
2018-07-07T08:59:51.332Z,2.20
2018-07-07T09:02:20.238Z,2.10
2018-07-07T09:04:49.134Z,1.83
2018-07-07T09:07:18.024Z,2.00
2018-07-07T09:09:46.915Z,2.20
2018-07-07T09:12:16.400Z,1.90
2018-07-07T09:14:45.167Z,1.90
2018-07-07T09:17:14.711Z,2.10
2018-07-07T09:19:44.685Z,2.17
2018-07-07T09:22:13.570Z,2.63
2018-07-07T09:24:42.442Z,1.90
2018-07-07T09:27:11.658Z,1.97
2018-07-07T09:29:40.961Z,1.80
2018-07-07T09:32:09.926Z,1.77
2018-07-07T09:34:38.813Z,1.93
2018-07-07T09:37:07.697Z,1.60
2018-07-07T09:39:37.947Z,1.70
2018-07-07T09:42:06.835Z,1.67
2018-07-07T09:44:37.540Z,1.67
2018-07-07T09:47:07.036Z,1.97
2018-07-07T09:49:37.391Z,1.70
2018-07-07T09:52:06.342Z,1.60
2018-07-07T09:54:35.294Z,1.53
2018-07-07T09:57:04.231Z,1.53
2018-07-07T09:59:33.103Z,1.30
2018-07-07T10:02:02.013Z,2.07
2018-07-07T10:04:31.246Z,1.83
2018-07-07T10:07:00.490Z,1.97
2018-07-07T10:09:31.363Z,1.60
2018-07-07T10:12:00.463Z,1.80
2018-07-07T10:14:29.504Z,1.80
2018-07-07T10:16:58.765Z,1.73
2018-07-07T10:19:27.809Z,2.10
2018-07-07T10:21:56.893Z,1.73
2018-07-07T10:24:25.833Z,1.83
2018-07-07T10:26:55.046Z,1.67
2018-07-07T10:29:24.042Z,1.60
2018-07-07T10:31:52.950Z,1.70
2018-07-07T10:34:21.819Z,1.50
2018-07-07T10:36:50.887Z,1.37
2018-07-07T10:39:19.773Z,1.60
2018-07-07T10:41:49.472Z,1.67
2018-07-07T10:44:19.377Z,1.50
2018-07-07T10:46:48.383Z,1.40
2018-07-07T10:49:18.032Z,1.67
2018-07-07T10:51:47.244Z,1.70
2018-07-07T10:54:16.207Z,1.93
2018-07-07T10:56:45.164Z,1.80
2018-07-07T10:59:14.173Z,1.80
2018-07-07T11:01:43.096Z,1.70
2018-07-07T11:04:12.083Z,1.63
2018-07-07T11:06:41.112Z,1.60
2018-07-07T11:09:10.013Z,1.83
2018-07-07T11:11:38.990Z,1.80
2018-07-07T11:14:07.954Z,1.80
2018-07-07T11:16:36.929Z,1.40
2018-07-07T11:19:06.418Z,1.50
2018-07-07T11:21:35.369Z,1.40
2018-07-07T11:24:04.495Z,1.77
2018-07-07T11:26:33.455Z,1.60
2018-07-07T11:29:02.505Z,1.83
2018-07-07T11:31:31.391Z,1.50
2018-07-07T11:34:00.280Z,1.60
2018-07-07T11:36:29.329Z,1.40
2018-07-07T11:38:58.172Z,1.60
2018-07-07T11:41:27.212Z,1.60
2018-07-07T11:43:56.100Z,1.80
2018-07-07T11:46:24.768Z,1.70
2018-07-07T11:48:53.471Z,1.60
2018-07-07T11:51:22.355Z,1.50
2018-07-07T11:53:51.270Z,1.70
2018-07-07T11:56:19.935Z,1.70
2018-07-07T11:58:49.101Z,1.50
2018-07-07T12:01:18.084Z,1.87
2018-07-07T12:03:47.203Z,1.63
2018-07-07T12:06:16.164Z,1.80
2018-07-07T12:08:45.316Z,1.80
2018-07-07T12:11:14.411Z,1.80
2018-07-07T12:13:43.247Z,1.70
2018-07-07T12:16:12.279Z,1.73
2018-07-07T12:18:41.507Z,1.80
2018-07-07T12:21:10.585Z,1.37
2018-07-07T12:23:39.525Z,1.40
2018-07-07T12:26:08.555Z,1.70
2018-07-07T12:28:37.344Z,1.47
2018-07-07T12:31:06.076Z,1.43
2018-07-07T12:33:35.136Z,1.90
2018-07-07T12:36:04.298Z,1.67
2018-07-07T12:38:33.231Z,1.80
2018-07-07T12:41:02.625Z,1.63
2018-07-07T12:43:31.735Z,1.70
2018-07-07T12:46:00.907Z,1.43
2018-07-07T12:48:29.705Z,1.50
2018-07-07T12:50:58.688Z,1.80
2018-07-07T12:53:27.608Z,1.37
2018-07-07T12:55:56.685Z,1.40
2018-07-07T12:58:25.614Z,1.60
2018-07-07T13:00:54.557Z,1.40
2018-07-07T13:03:23.591Z,1.90
2018-07-07T13:05:52.687Z,1.67
2018-07-07T13:08:21.586Z,1.80
2018-07-07T13:10:50.511Z,1.50
2018-07-07T13:13:19.506Z,1.43
2018-07-07T13:15:48.597Z,1.30
2018-07-07T13:18:17.564Z,1.70
2018-07-07T13:20:47.021Z,1.50
2018-07-07T13:23:16.407Z,1.50
2018-07-07T13:25:46.220Z,1.50
2018-07-07T13:28:15.524Z,1.30
2018-07-07T13:30:44.163Z,1.83
2018-07-07T13:33:13.002Z,1.57
2018-07-07T13:35:41.971Z,1.33
2018-07-07T13:38:11.006Z,1.57
2018-07-07T13:40:39.953Z,1.60
2018-07-07T13:43:08.951Z,1.67
2018-07-07T13:45:38.304Z,1.50
2018-07-07T13:48:09.069Z,1.70
2018-07-07T13:50:45.485Z,1.67
2018-07-07T13:53:14.485Z,1.47
2018-07-07T13:55:43.597Z,1.60
2018-07-07T13:58:12.807Z,1.50
2018-07-07T14:00:42.343Z,1.53
2018-07-07T14:03:11.901Z,1.60
2018-07-07T14:05:41.031Z,1.50
2018-07-07T14:08:09.972Z,1.80
2018-07-07T14:10:38.996Z,1.57
2018-07-07T14:13:08.044Z,1.50
2018-07-07T14:15:37.008Z,1.40
2018-07-07T14:18:05.938Z,1.47
2018-07-07T14:20:34.957Z,1.20
2018-07-07T14:23:03.961Z,1.87
2018-07-07T14:25:32.926Z,1.40
2018-07-07T14:28:02.172Z,1.90
2018-07-07T14:30:31.150Z,1.83
2018-07-07T14:33:00.168Z,1.43
2018-07-07T14:35:29.106Z,1.60
2018-07-07T14:37:58.152Z,1.57
2018-07-07T14:40:27.036Z,1.60
2018-07-07T14:42:56.042Z,1.67
2018-07-07T14:45:25.106Z,2.40
2018-07-07T14:47:54.129Z,1.37
2018-07-07T14:50:23.072Z,1.50
2018-07-07T14:52:52.073Z,2.00
2018-07-07T14:55:24.324Z,1.43
2018-07-07T14:57:53.292Z,1.80
2018-07-07T15:00:22.194Z,1.70
2018-07-07T15:02:51.091Z,1.87
2018-07-07T15:05:20.041Z,1.70
2018-07-07T15:07:48.997Z,1.60
2018-07-07T15:10:18.207Z,1.63
2018-07-07T15:12:47.107Z,1.70
2018-07-07T15:15:16.027Z,1.60
2018-07-07T15:17:44.984Z,1.63
2018-07-07T15:20:15.098Z,2.00
2018-07-07T15:22:45.403Z,2.00
2018-07-07T15:25:14.198Z,1.87
2018-07-07T15:27:43.147Z,1.70
2018-07-07T15:30:12.252Z,1.50
2018-07-07T15:32:41.195Z,2.03
2018-07-07T15:35:09.967Z,1.70
2018-07-07T15:37:38.671Z,1.90
2018-07-07T15:40:07.714Z,1.70
2018-07-07T15:42:36.655Z,1.80
2018-07-07T15:45:05.582Z,2.17
2018-07-07T15:47:34.512Z,2.00
2018-07-07T15:50:04.135Z,2.00
2018-07-07T15:52:33.105Z,1.90
2018-07-07T15:55:02.212Z,2.00
2018-07-07T15:57:31.031Z,1.63
2018-07-07T16:00:00.220Z,2.00
2018-07-07T16:02:29.107Z,2.60
2018-07-07T16:04:58.146Z,2.33
2018-07-07T16:07:27.077Z,1.87
2018-07-07T16:09:56.216Z,2.30
2018-07-07T16:12:25.005Z,2.03
2018-07-07T16:14:53.947Z,1.80
2018-07-07T16:17:22.807Z,2.10
2018-07-07T16:19:51.751Z,1.72
2018-07-07T16:22:20.689Z,1.70
2018-07-07T16:24:49.668Z,1.90
2018-07-07T16:27:18.692Z,2.17
2018-07-07T16:29:47.551Z,1.73
2018-07-07T16:32:16.460Z,2.20
2018-07-07T16:34:45.438Z,1.93
2018-07-07T16:37:14.434Z,1.50
2018-07-07T16:39:43.272Z,2.70
2018-07-07T16:42:12.528Z,1.97
2018-07-07T16:44:41.199Z,1.90
2018-07-07T16:47:09.942Z,3.60
2018-07-07T16:49:39.239Z,3.53
2018-07-07T16:52:08.699Z,2.20
2018-07-07T16:54:39.481Z,4.05
2018-07-07T16:57:08.446Z,5.30
2018-07-07T16:59:37.657Z,9.53
2018-07-07T17:02:07.032Z,2.50
2018-07-07T17:04:35.960Z,2.00
2018-07-07T17:07:04.412Z,3.30
2018-07-07T17:09:33.741Z,2.40
2018-07-07T17:12:02.744Z,1.73
2018-07-07T17:14:31.752Z,1.70
2018-07-07T17:17:00.851Z,2.97
2018-07-07T17:19:29.872Z,2.30
2018-07-07T17:21:58.821Z,2.00
2018-07-07T17:24:29.156Z,1.70
2018-07-07T17:26:58.492Z,2.10
2018-07-07T17:29:27.975Z,1.97
2018-07-07T17:31:57.042Z,1.80
2018-07-07T17:34:26.118Z,1.93
2018-07-07T17:36:55.850Z,1.70
2018-07-07T17:39:24.848Z,1.80
2018-07-07T17:41:53.565Z,1.70
2018-07-07T17:44:22.618Z,8.37
2018-07-07T17:46:51.604Z,2.93
2018-07-07T17:49:20.862Z,1.83
2018-07-07T17:51:50.180Z,1.80
2018-07-07T17:54:19.900Z,1.77
2018-07-07T17:56:48.930Z,1.90
2018-07-07T17:59:17.934Z,1.53
2018-07-07T18:01:47.205Z,1.60
2018-07-07T18:04:16.185Z,1.60
2018-07-07T18:06:45.131Z,1.47
2018-07-07T18:09:13.813Z,1.50
2018-07-07T18:11:42.662Z,1.20
2018-07-07T18:14:11.446Z,1.70
2018-07-07T18:16:40.428Z,1.87
2018-07-07T18:19:09.621Z,1.93
2018-07-07T18:21:38.510Z,1.63
2018-07-07T18:24:07.530Z,1.23
2018-07-07T18:26:36.452Z,1.20
2018-07-07T18:29:05.111Z,1.37
2018-07-07T18:31:34.004Z,1.80
2018-07-07T18:34:02.928Z,1.60
2018-07-07T18:36:31.833Z,1.33
2018-07-07T18:39:00.875Z,1.30
2018-07-07T18:41:29.771Z,1.83
2018-07-07T18:43:58.664Z,1.67
2018-07-07T18:46:27.661Z,1.73
2018-07-07T18:48:56.593Z,1.57
2018-07-07T18:51:25.463Z,1.77
2018-07-07T18:53:54.635Z,1.30
2018-07-07T18:56:23.563Z,1.10
2018-07-07T18:58:52.423Z,1.40
2018-07-07T19:01:21.391Z,1.37
2018-07-07T19:03:50.259Z,1.30
2018-07-07T19:06:19.275Z,1.70
2018-07-07T19:08:48.197Z,1.53
2018-07-07T19:11:17.188Z,1.20
2018-07-07T19:13:46.160Z,1.43
2018-07-07T19:16:15.338Z,1.40
2018-07-07T19:18:44.333Z,1.30
2018-07-07T19:21:13.197Z,1.00
2018-07-07T19:23:42.313Z,1.27
2018-07-07T19:26:11.371Z,1.20
2018-07-07T19:28:40.257Z,1.40
2018-07-07T19:31:09.231Z,1.40
2018-07-07T19:33:38.265Z,1.43
2018-07-07T19:36:07.208Z,1.03
2018-07-07T19:38:35.877Z,1.57
2018-07-07T19:41:04.811Z,1.70
2018-07-07T19:43:33.723Z,1.10
2018-07-07T19:46:02.801Z,1.47
2018-07-07T19:48:31.767Z,1.67
2018-07-07T19:51:00.803Z,1.27
2018-07-07T19:53:29.841Z,1.50
2018-07-07T19:55:58.961Z,1.50
2018-07-07T19:58:28.898Z,1.23
2018-07-07T20:00:57.918Z,1.60
2018-07-07T20:03:27.013Z,1.60
2018-07-07T20:05:56.045Z,1.60
2018-07-07T20:08:25.104Z,1.30
2018-07-07T20:10:54.141Z,1.40
2018-07-07T20:13:23.181Z,1.30
2018-07-07T20:16:11.924Z,1.50
2018-07-07T20:19:09.032Z,1.40
2018-07-07T20:21:47.056Z,1.50
2018-07-07T20:24:17.813Z,1.40
2018-07-07T20:26:46.763Z,1.70
2018-07-07T20:29:15.841Z,1.53
2018-07-07T20:31:44.827Z,1.27
2018-07-07T20:34:14.109Z,1.30
2018-07-07T20:36:43.071Z,1.20
2018-07-07T20:39:12.124Z,1.50
2018-07-07T20:41:41.075Z,1.33
2018-07-07T20:44:09.978Z,1.20
2018-07-07T20:46:39.053Z,1.40
2018-07-07T20:49:08.101Z,1.20
2018-07-07T20:51:37.102Z,1.37
2018-07-07T20:54:06.127Z,1.43
2018-07-07T20:56:35.136Z,1.70
2018-07-07T20:59:04.133Z,1.60
2018-07-07T21:01:33.339Z,1.60
2018-07-07T21:04:02.123Z,1.70
2018-07-07T21:06:30.965Z,1.20
2018-07-07T21:09:00.263Z,1.40
2018-07-07T21:11:29.267Z,1.27
2018-07-07T21:13:58.196Z,1.40
2018-07-07T21:16:26.846Z,1.40
2018-07-07T21:18:55.545Z,1.47
2018-07-07T21:21:24.710Z,1.37
2018-07-07T21:23:54.095Z,1.43
2018-07-07T21:26:23.137Z,1.40
2018-07-07T21:28:52.095Z,1.77
2018-07-07T21:31:21.058Z,1.20
2018-07-07T21:33:50.144Z,1.27
2018-07-07T21:36:19.074Z,1.30
2018-07-07T21:38:48.035Z,1.40
2018-07-07T21:41:16.964Z,1.20
2018-07-07T21:43:46.012Z,1.77
2018-07-07T21:46:14.967Z,1.57
2018-07-07T21:48:43.868Z,1.50
2018-07-07T21:51:12.822Z,1.60
2018-07-07T21:53:41.730Z,1.27
2018-07-07T21:56:10.677Z,1.10
2018-07-07T21:58:39.685Z,1.23
2018-07-07T22:01:16.703Z,1.73
2018-07-07T22:03:45.628Z,1.03
2018-07-07T22:06:14.604Z,1.40
2018-07-07T22:08:43.238Z,1.70
2018-07-07T22:11:11.923Z,1.47
2018-07-07T22:13:40.873Z,1.90
2018-07-07T22:16:09.803Z,1.30
2018-07-07T22:18:38.820Z,1.50
2018-07-07T22:21:19.177Z,1.40
2018-07-07T22:23:48.218Z,1.27
2018-07-07T22:26:17.113Z,1.70
2018-07-07T22:28:46.051Z,1.60
2018-07-07T22:31:14.992Z,1.47
2018-07-07T22:33:43.887Z,1.30
2018-07-07T22:36:12.821Z,1.60
2018-07-07T22:38:41.752Z,1.60
2018-07-07T22:41:10.641Z,1.77
2018-07-07T22:43:39.471Z,1.80
2018-07-07T22:46:08.348Z,1.50
2018-07-07T22:48:37.262Z,2.00
2018-07-07T22:51:06.248Z,1.63
2018-07-07T22:53:35.146Z,1.50
2018-07-07T22:56:04.126Z,1.60
2018-07-07T22:58:33.189Z,1.63
2018-07-07T23:01:02.122Z,1.70
2018-07-07T23:03:31.022Z,2.03
2018-07-07T23:06:00.057Z,1.50
2018-07-07T23:08:28.910Z,1.33
2018-07-07T23:10:58.064Z,1.60
2018-07-07T23:13:27.072Z,2.10
2018-07-07T23:15:56.280Z,1.70
2018-07-07T23:18:25.120Z,1.43
2018-07-07T23:20:54.019Z,1.50
2018-07-07T23:23:23.027Z,1.73
2018-07-07T23:25:51.907Z,1.80
2018-07-07T23:28:20.791Z,1.70
2018-07-07T23:30:49.653Z,1.60
2018-07-07T23:33:18.581Z,1.70
2018-07-07T23:35:47.483Z,2.00
2018-07-07T23:38:16.443Z,1.77
2018-07-07T23:40:45.345Z,2.23
2018-07-07T23:43:14.865Z,1.77
2018-07-07T23:45:43.771Z,1.50
2018-07-07T23:48:12.670Z,1.67
2018-07-07T23:50:41.338Z,1.90
2018-07-07T23:53:10.088Z,2.07
2018-07-07T23:55:38.977Z,1.90
2018-07-07T23:58:07.931Z,2.10
